VIE weather

Vienna International Airport
Vienna, Vienna, Austria

Public forecast

Using degrees Celsius for public forecast. Weather courtesy of forecast.io.

Current aviation weather report (METAR) for Vienna International Airport

Retrieved 2019/10/23 01:20 UTC (30 minutes ago):

LOWW 230120Z 15002KT 0250 R29/0350N FG FEW000 BKN001 09/09 Q1021 NOSIG

Aviation forecast (TAF) for Vienna International Airport

Retrieved 2019-10-23 03:24 UTC (0 seconds ago):

TAF LOWW 230215Z 2303/2409 VRB02KT 0200 FG VV001 TX19/2314Z TN10/2303Z TEMPO 2303/2306 0400 BKN002 BECMG 2306/2308 12005KT 1200 BR OVC003 BECMG 2309/2312 13012KT CAVOK TEMPO 2312/2324 15015KT